Wichita Mid Continent Airport
KICT : rendu visible

Aérodrome :











RETROUVEZ-NOUS SUR...

 
LOGIN :

S'inscrire | Disclaimer

   EN    FR    IT 

 









Légende :    VFR   VFR Marginal   IFR   IFR Intensif   IFR Très Intensif
Visi : 
Plafond : 
>= 8 km
>= 3000ft
5 à 8 km
1000 à 3000 ft
1500m à 5 km
500 à 1000 ft
800 à 1500m
200 à 500 ft
< 800m
< 200 ft
Symboles :   Orages  Brouillard  Fortes neiges  Fortes précipitations  Vent > 20 kt






- Altitude de l'aérodrome : 1333 ft
- Code IATA : ICT


KICT - Wichita Mid Continent

DERNIER METAR :
  • 060553Z 35013G24KT 10SM FEW120 SCT150 BKN180 09/02 A3006 RMK AO2 SLP179 T00940022 10139 20094 401780022 51033

METARs EXPIRÉS :
  • 060453Z 35013KT 10SM FEW120 SCT150 BKN180 11/02 A3004 RMK AO2 SLP169 T01060022
  • 060353Z 36009KT 10SM FEW120 BKN150 OVC180 11/02 A3000 RMK AO2 SLP157 T01060022

TAF KICT
Valide du 06 à 06h jusqu'au 07 à 06h UTC


060520Z 0606/0706 36017G25KT P6SM BKN120
FM060900 36015G25KT P6SM OVC025
FM061100 36020G29KT P6SM OVC015
FM061600 01016G23KT P6SM BKN030
FM061800 36011KT P6SM SCT120



MET'MAP, la Météo Aéronautique d'un coup d'oeil ! - Copyright ORBIFLY Décembre 2007 - Disclaimer

ORBIFLY MET'MAP TEAM :

Programmation & Développement : Alexandra Zaïnal
Sur une idée originale de : Baudouin d'Aumeries
Assistance à la programmation : Marc-Olivier Méhu
Soutien technique & logistique : Manuel Goepfert

Contact : metmap@orbifly.com




SOURCES & CREDITS :

   NOAA       Earth
Advisory